Time;durP1;ratioP1;P1;durP2;ratioP2;P2;SDS_P1;SDS_P2;PMS_P1;PMS_P2;Temp;Humidity;BMP_temperature;BMP_pressure;BME280_temperature;BME280_humidity;BME280_pressure;Samples;Min_cycle;Max_cycle;Signal;HPM_P1;HPM_P2
2022/01/17 00:00:59;;;;;;;10.67;3.63;;;0.90;84.40;;;;;;4992083;28;20214;-59
2022/01/17 00:03:25;;;;;;;10.33;3.63;;;0.90;83.60;;;;;;4992399;28;20180;-63
2022/01/17 00:05:54;;;;;;;7.40;3.13;;;1.00;83.60;;;;;;4992541;28;20193;-59
2022/01/17 00:08:20;;;;;;;9.63;2.83;;;1.00;82.00;;;;;;4992341;28;20646;-60
2022/01/17 00:10:47;;;;;;;11.80;2.50;;;1.20;81.40;;;;;;4992438;28;20182;-60
2022/01/17 00:13:22;;;;;;;8.93;2.90;;;1.20;80.20;;;;;;4992366;28;20586;-60
2022/01/17 00:15:52;;;;;;;8.73;2.93;;;1.30;79.30;;;;;;4993355;28;20214;-59
2022/01/17 00:20:46;;;;;;;7.03;2.60;;;1.30;78.00;;;;;;4995988;28;20281;-58
2022/01/17 00:23:12;;;;;;;6.40;2.70;;;1.30;77.20;;;;;;4978535;28;20192;-58
2022/01/17 00:25:38;;;;;;;8.17;3.03;;;1.40;77.20;;;;;;4995915;28;20188;-59
2022/01/17 00:28:04;;;;;;;6.07;2.80;;;1.40;76.70;;;;;;4995611;28;20195;-61
2022/01/17 00:30:30;;;;;;;7.93;3.03;;;1.50;76.00;;;;;;4996087;28;20180;-59
2022/01/17 00:32:56;;;;;;;10.03;3.00;;;1.50;75.10;;;;;;4979134;28;20188;-58
2022/01/17 00:35:22;;;;;;;4.50;2.03;;;1.60;74.60;;;;;;4996326;28;20671;-58
2022/01/17 00:37:50;;;;;;;6.97;2.60;;;1.60;74.00;;;;;;4978762;28;20203;-57
2022/01/17 00:40:16;;;;;;;6.63;2.60;;;1.60;74.10;;;;;;4996246;28;20183;-58
2022/01/17 00:42:45;;;;;;;4.93;2.50;;;1.60;73.50;;;;;;4995753;28;20624;-59
2022/01/17 00:45:15;;;;;;;8.87;3.03;;;1.60;73.70;;;;;;4995841;28;20214;-59
2022/01/17 00:47:42;;;;;;;9.93;3.73;;;1.50;77.40;;;;;;4995283;28;20654;-64
2022/01/17 00:50:08;;;;;;;6.83;3.10;;;1.30;78.50;;;;;;4995241;28;20183;-59
2022/01/17 00:52:34;;;;;;;6.50;2.50;;;1.20;77.60;;;;;;4985557;28;20345;-60
2022/01/17 00:55:00;;;;;;;3.90;2.50;;;1.30;75.40;;;;;;4997288;28;20694;-59
2022/01/17 00:57:26;;;;;;;6.00;2.20;;;1.50;74.30;;;;;;5015206;28;20193;-73
2022/01/17 00:59:52;;;;;;;6.10;2.03;;;1.60;73.70;;;;;;5015034;28;20184;-59
2022/01/17 01:02:19;;;;;;;5.77;1.77;;;1.70;72.30;;;;;;5014328;28;20190;-60
2022/01/17 01:04:45;;;;;;;5.27;1.63;;;1.90;71.00;;;;;;5014345;28;20187;-59
2022/01/17 01:07:11;;;;;;;4.60;1.80;;;2.00;71.30;;;;;;5014385;28;20570;-60
2022/01/17 01:09:46;;;;;;;4.23;1.80;;;2.10;70.80;;;;;;5014251;28;20384;-64
2022/01/17 01:12:12;;;;;;;7.50;2.00;;;2.10;69.90;;;;;;5014223;28;20568;-60
2022/01/17 01:14:41;;;;;;;4.20;1.73;;;2.10;70.10;;;;;;4997078;28;20183;-60
2022/01/17 01:17:14;;;;;;;6.53;2.20;;;2.00;70.40;;;;;;4996568;28;20254;-58
2022/01/17 01:19:42;;;;;;;8.90;2.70;;;2.00;71.50;;;;;;5013684;28;20190;-58
2022/01/17 01:27:55;;;;;;;11.20;2.40;;;1.50;76.00;;;;;;4926086;28;20718;-60
2022/01/17 01:30:23;;;;;;;7.40;2.30;;;1.30;76.80;;;;;;5013005;28;20199;-60
2022/01/17 01:32:53;;;;;;;7.00;2.20;;;1.30;77.30;;;;;;5013933;28;20288;-60
2022/01/17 01:35:23;;;;;;;5.40;2.23;;;1.30;77.20;;;;;;5013775;28;20209;-59
2022/01/17 01:37:49;;;;;;;15.53;2.73;;;1.30;82.90;;;;;;5013323;28;20218;-60
2022/01/17 01:40:17;;;;;;;12.33;2.57;;;1.40;76.90;;;;;;5013880;28;20277;-60
2022/01/17 01:42:43;;;;;;;6.20;2.17;;;1.50;74.00;;;;;;5013089;28;20180;-60
2022/01/17 01:45:12;;;;;;;6.03;2.10;;;1.70;71.00;;;;;;5013033;28;20211;-59
2022/01/17 01:47:39;;;;;;;6.00;2.00;;;1.80;70.00;;;;;;5011948;28;20716;-60
2022/01/17 01:50:07;;;;;;;4.13;1.73;;;2.10;68.40;;;;;;5012418;28;20214;-60
2022/01/17 01:52:33;;;;;;;5.53;1.90;;;2.20;66.30;;;;;;5004101;28;20722;-63
2022/01/17 01:54:59;;;;;;;3.73;1.57;;;2.30;65.60;;;;;;4993735;28;20203;-60
2022/01/17 01:57:25;;;;;;;4.07;1.47;;;2.40;67.40;;;;;;4993677;28;20588;-59
2022/01/17 01:59:52;;;;;;;3.57;1.53;;;2.40;64.70;;;;;;4993578;28;20198;-59
2022/01/17 02:02:18;;;;;;;7.03;1.73;;;2.40;63.10;;;;;;4993658;28;20246;-59
2022/01/17 02:04:43;;;;;;;6.53;1.47;;;2.40;62.80;;;;;;4993682;28;20533;-60
2022/01/17 02:07:10;;;;;;;4.33;1.50;;;2.40;63.40;;;;;;4994359;28;20573;-60
2022/01/17 02:09:37;;;;;;;2.70;1.40;;;2.40;63.40;;;;;;4975703;28;20195;-59
2022/01/17 02:12:04;;;;;;;4.87;1.90;;;2.50;62.60;;;;;;4976258;28;20219;-61
2022/01/17 02:14:29;;;;;;;6.23;1.60;;;2.50;62.30;;;;;;4993345;28;20191;-64
2022/01/17 02:17:00;;;;;;;4.43;1.40;;;2.60;62.50;;;;;;4993213;28;20216;-59
2022/01/17 02:19:28;;;;;;;3.23;1.67;;;2.50;63.10;;;;;;4993442;28;20183;-59
2022/01/17 02:21:54;;;;;;;6.70;1.90;;;2.50;63.80;;;;;;4993232;28;20328;-60
2022/01/17 02:24:21;;;;;;;6.47;2.23;;;2.50;64.20;;;;;;4993570;28;20185;-60
2022/01/17 02:26:50;;;;;;;5.90;2.37;;;2.60;65.00;;;;;;4992822;28;20709;-59
2022/01/17 02:29:16;;;;;;;4.50;1.80;;;2.50;66.20;;;;;;4993799;28;20270;-59
2022/01/17 02:31:43;;;;;;;5.97;2.77;;;2.40;66.60;;;;;;4992941;28;20566;-60
2022/01/17 02:34:10;;;;;;;6.90;2.37;;;2.40;67.40;;;;;;4993405;28;20560;-59
2022/01/17 02:36:36;;;;;;;7.87;2.27;;;2.30;68.20;;;;;;4992774;28;20216;-59
2022/01/17 02:39:03;;;;;;;7.70;2.33;;;2.30;68.70;;;;;;4992300;28;20559;-60
2022/01/17 02:41:33;;;;;;;12.70;2.23;;;2.20;69.10;;;;;;4993243;28;20184;-59
2022/01/17 02:44:01;;;;;;;5.07;1.90;;;2.10;69.70;;;;;;4993041;28;20183;-58
2022/01/17 02:46:28;;;;;;;6.73;1.80;;;2.00;70.00;;;;;;4993298;28;20541;-59
2022/01/17 02:48:56;;;;;;;3.57;1.73;;;2.00;70.50;;;;;;4992488;28;20190;-60
2022/01/17 02:51:22;;;;;;;4.10;1.57;;;2.10;69.90;;;;;;4974890;28;20184;-60
2022/01/17 02:53:48;;;;;;;5.20;2.10;;;2.20;69.60;;;;;;4992313;28;20327;-59
2022/01/17 02:56:14;;;;;;;6.13;1.60;;;2.30;69.80;;;;;;4975733;28;20298;-59
2022/01/17 02:58:40;;;;;;;3.27;1.60;;;2.40;69.90;;;;;;4992777;28;20267;-59
2022/01/17 03:01:18;;;;;;;4.97;1.80;;;2.40;70.10;;;;;;4992939;28;20643;-59
2022/01/17 03:03:45;;;;;;;13.67;2.30;;;2.40;70.50;;;;;;4992767;28;20176;-58
2022/01/17 03:06:12;;;;;;;4.77;1.60;;;2.40;70.60;;;;;;4988810;28;20267;-59
2022/01/17 03:08:40;;;;;;;7.97;1.80;;;2.40;71.20;;;;;;4992451;28;20211;-60
2022/01/17 03:11:06;;;;;;;4.90;1.60;;;2.40;71.50;;;;;;4992380;28;20195;-59
2022/01/17 03:13:36;;;;;;;7.30;2.07;;;2.40;72.00;;;;;;4992374;28;20246;-59
2022/01/17 03:16:07;;;;;;;4.93;2.10;;;2.30;72.80;;;;;;4992469;28;20221;-60
2022/01/17 03:18:39;;;;;;;9.47;2.53;;;2.20;73.70;;;;;;4992252;28;20183;-62
2022/01/17 03:21:06;;;;;;;7.37;2.13;;;2.00;75.00;;;;;;4992179;28;20586;-59
2022/01/17 03:23:32;;;;;;;3.83;1.37;;;1.90;75.70;;;;;;4992227;28;20212;-60
2022/01/17 03:25:58;;;;;;;6.13;1.70;;;1.80;76.50;;;;;;4992244;28;20519;-60
2022/01/17 03:28:25;;;;;;;19.57;2.93;;;1.80;77.30;;;;;;4992246;28;20293;-60
2022/01/17 03:30:51;;;;;;;8.67;2.03;;;1.80;76.90;;;;;;4991826;28;20187;-58
2022/01/17 03:33:17;;;;;;;7.80;2.30;;;1.80;76.80;;;;;;4992027;28;20281;-62
2022/01/17 03:35:44;;;;;;;6.40;1.90;;;2.00;76.60;;;;;;4991742;28;20285;-59
2022/01/17 03:38:14;;;;;;;6.83;2.10;;;2.20;76.30;;;;;;4974900;28;20246;-59
2022/01/17 03:40:41;;;;;;;4.13;1.80;;;2.30;76.30;;;;;;4992186;28;20172;-60
2022/01/17 03:43:07;;;;;;;5.37;2.07;;;2.40;76.30;;;;;;4992368;28;20196;-62
2022/01/17 03:45:33;;;;;;;5.53;1.90;;;2.60;76.00;;;;;;4992209;28;20200;-59
2022/01/17 03:47:59;;;;;;;13.67;2.97;;;2.60;76.20;;;;;;4974285;28;20184;-59
2022/01/17 03:50:26;;;;;;;8.77;2.27;;;2.60;76.50;;;;;;4993114;28;20173;-59
2022/01/17 03:52:52;;;;;;;10.87;2.30;;;2.60;76.30;;;;;;5006268;28;20335;-60
2022/01/17 03:55:20;;;;;;;6.43;2.07;;;2.60;75.80;;;;;;4998095;28;20487;-59
2022/01/17 03:57:46;;;;;;;8.07;1.80;;;2.50;75.60;;;;;;5015185;28;20183;-60
2022/01/17 04:00:33;;;;;;;3.07;1.80;;;2.50;75.50;;;;;;4998267;28;20179;-58
2022/01/17 04:02:59;;;;;;;4.87;2.00;;;2.50;76.90;;;;;;5014883;28;20190;-60
2022/01/17 04:05:25;;;;;;;10.00;3.07;;;2.50;76.00;;;;;;5015368;28;20187;-59
2022/01/17 04:07:50;;;;;;;9.60;3.37;;;2.50;75.90;;;;;;5014443;28;20214;-60
2022/01/17 04:10:17;;;;;;;21.63;3.97;;;2.40;76.20;;;;;;5015083;28;20186;-60
2022/01/17 04:12:43;;;;;;;5.87;2.30;;;2.30;76.40;;;;;;5014646;28;20189;-59
2022/01/17 04:15:11;;;;;;;10.77;3.50;;;2.30;77.20;;;;;;5014839;28;20180;-60
2022/01/17 04:17:39;;;;;;;7.93;2.37;;;2.30;78.10;;;;;;5015129;28;20513;-73
2022/01/17 04:20:13;;;;;;;10.87;3.37;;;2.30;78.90;;;;;;5014703;28;20267;-60
2022/01/17 04:22:43;;;;;;;9.63;2.93;;;2.30;79.80;;;;;;5014503;28;20196;-63
2022/01/17 04:25:10;;;;;;;8.90;3.83;;;2.30;80.10;;;;;;5013741;28;20916;-61
2022/01/17 04:27:36;;;;;;;16.47;3.60;;;2.30;80.60;;;;;;5014611;28;20581;-59
2022/01/17 04:30:04;;;;;;;9.90;3.60;;;2.30;81.00;;;;;;5014725;28;20179;-59
2022/01/17 04:32:30;;;;;;;11.88;3.97;;;2.30;82.00;;;;;;5014330;28;20401;-61
2022/01/17 04:34:55;;;;;;;11.00;3.40;;;2.30;82.10;;;;;;5014136;28;20696;-60
2022/01/17 04:37:21;;;;;;;12.17;3.97;;;2.30;82.60;;;;;;5014172;28;20226;-59
2022/01/17 04:39:47;;;;;;;10.23;3.73;;;2.20;83.40;;;;;;5014251;28;20257;-58
2022/01/17 04:42:13;;;;;;;10.27;4.27;;;2.10;84.10;;;;;;5014283;28;20266;-60
2022/01/17 04:47:29;;;;;;;15.80;4.10;;;2.00;85.80;;;;;;4999592;28;20195;-60
2022/01/17 04:49:56;;;;;;;8.97;3.87;;;2.00;86.30;;;;;;5013721;28;20197;-61
2022/01/17 04:52:22;;;;;;;15.10;3.37;;;2.00;86.80;;;;;;5014005;28;20234;-60
2022/01/17 04:54:53;;;;;;;7.83;3.67;;;2.00;87.80;;;;;;5014008;28;20826;-58
2022/01/17 04:57:20;;;;;;;9.73;3.70;;;1.90;87.90;;;;;;5014066;28;20228;-59
2022/01/17 04:59:48;;;;;;;17.37;4.87;;;1.90;88.20;;;;;;5013933;28;20183;-59
2022/01/17 05:02:15;;;;;;;12.67;3.80;;;1.90;88.80;;;;;;5012973;28;20188;-58
2022/01/17 05:04:40;;;;;;;11.77;3.73;;;1.90;89.20;;;;;;4996261;28;20179;-64
2022/01/17 05:07:06;;;;;;;17.00;4.93;;;1.90;89.60;;;;;;5013236;28;20184;-61
2022/01/17 05:09:32;;;;;;;9.27;3.90;;;1.90;90.10;;;;;;4979290;28;20273;-59
2022/01/17 05:11:58;;;;;;;10.47;3.47;;;1.90;90.40;;;;;;5013073;28;20174;-60
2022/01/17 05:14:25;;;;;;;19.60;5.00;;;1.90;90.70;;;;;;4995909;28;20283;-58
2022/01/17 05:17:04;;;;;;;15.50;4.30;;;1.80;90.90;;;;;;4995094;28;20604;-61
2022/01/17 05:19:48;;;;;;;18.87;5.80;;;1.80;91.50;;;;;;5013350;28;20191;-59
2022/01/17 05:22:20;;;;;;;18.80;4.60;;;1.80;91.60;;;;;;5013040;28;20636;-58
2022/01/17 05:24:46;;;;;;;12.70;4.80;;;1.80;91.90;;;;;;5008570;28;20186;-63
2022/01/17 05:27:13;;;;;;;10.00;4.30;;;1.80;92.20;;;;;;5012874;28;20183;-60
2022/01/17 05:29:39;;;;;;;14.33;4.67;;;1.90;92.50;;;;;;5012826;28;20279;-60
2022/01/17 05:32:05;;;;;;;18.00;6.60;;;1.80;92.90;;;;;;5012463;28;20179;-60
2022/01/17 05:34:34;;;;;;;19.17;5.50;;;1.80;93.30;;;;;;5013454;28;20180;-60
2022/01/17 05:37:03;;;;;;;23.57;6.50;;;1.70;93.60;;;;;;5012848;28;20299;-61
2022/01/17 05:39:29;;;;;;;14.17;4.80;;;1.70;94.10;;;;;;4995099;28;20184;-60
2022/01/17 05:41:55;;;;;;;13.47;5.30;;;1.70;94.60;;;;;;4995429;28;20190;-60
2022/01/17 05:44:21;;;;;;;21.13;5.80;;;1.70;94.80;;;;;;4995087;28;20191;-59
2022/01/17 05:46:46;;;;;;;11.73;4.70;;;1.60;94.80;;;;;;5012185;28;20576;-62
2022/01/17 05:49:12;;;;;;;26.00;5.80;;;1.60;94.90;;;;;;5012164;28;20195;-61
2022/01/17 05:51:38;;;;;;;9.07;4.37;;;1.50;95.00;;;;;;5011994;28;20245;-63
2022/01/17 05:54:04;;;;;;;25.73;5.10;;;1.50;95.30;;;;;;5011182;28;20238;-60
2022/01/17 05:56:30;;;;;;;23.20;6.07;;;1.50;95.60;;;;;;5011998;28;20219;-60
2022/01/17 05:58:55;;;;;;;28.30;13.83;;;1.50;95.80;;;;;;5012003;28;20204;-62
2022/01/17 06:01:21;;;;;;;25.13;6.50;;;1.50;95.80;;;;;;5012344;28;20551;-60
2022/01/17 06:03:47;;;;;;;42.33;6.73;;;1.40;96.10;;;;;;5011428;28;20642;-58
2022/01/17 06:06:12;;;;;;;13.67;4.37;;;1.40;96.50;;;;;;5012602;28;20313;-56
2022/01/17 06:08:38;;;;;;;13.50;5.33;;;1.40;96.60;;;;;;4994223;28;20190;-52
2022/01/17 06:11:04;;;;;;;18.40;5.00;;;1.40;96.80;;;;;;4993677;28;20190;-54
2022/01/17 06:13:30;;;;;;;18.03;5.00;;;1.40;96.90;;;;;;5011985;28;20193;-56
2022/01/17 06:15:55;;;;;;;14.43;5.43;;;1.50;97.10;;;;;;5011094;28;20308;-58
2022/01/17 06:18:21;;;;;;;20.03;6.53;;;1.50;97.20;;;;;;5011179;28;20268;-57
2022/01/17 06:20:47;;;;;;;25.53;6.97;;;1.50;97.60;;;;;;5010451;28;20230;-54
2022/01/17 06:23:13;;;;;;;37.70;7.13;;;1.50;97.30;;;;;;4993272;28;20245;-55
2022/01/17 06:25:38;;;;;;;30.27;6.20;;;1.50;97.60;;;;;;5010750;28;20268;-59
2022/01/17 06:28:04;;;;;;;14.30;5.20;;;1.50;98.10;;;;;;5009553;28;20183;-57
2022/01/17 06:30:30;;;;;;;15.23;5.53;;;1.60;99.20;;;;;;5009179;28;20186;-59
2022/01/17 06:32:56;;;;;;;31.67;5.10;;;1.50;98.50;;;;;;4991625;28;20252;-55
2022/01/17 06:35:22;;;;;;;12.93;4.30;;;1.50;98.70;;;;;;5009773;28;20187;-56
2022/01/17 06:37:48;;;;;;;13.30;4.30;;;1.40;98.30;;;;;;4991426;28;20195;-60
2022/01/17 06:40:14;;;;;;;36.00;5.63;;;1.30;99.30;;;;;;5009762;28;20215;-58
2022/01/17 06:42:41;;;;;;;34.83;6.57;;;1.30;99.40;;;;;;5009973;28;20272;-54
2022/01/17 06:45:07;;;;;;;18.97;5.50;;;1.20;99.40;;;;;;5010969;28;20491;-54
2022/01/17 06:47:35;;;;;;;22.13;6.10;;;1.10;99.90;;;;;;5010410;28;20215;-58
2022/01/17 06:50:04;;;;;;;25.53;8.10;;;1.10;99.90;;;;;;5010746;28;20532;-54
2022/01/17 06:52:31;;;;;;;20.87;6.53;;;1.10;99.90;;;;;;5011114;28;20276;-55
2022/01/17 06:54:56;;;;;;;7.70;4.17;;;1.10;99.90;;;;;;5001472;28;20225;-56
2022/01/17 06:57:25;;;;;;;21.93;4.57;;;1.30;99.90;;;;;;4997806;28;20297;-57
2022/01/17 06:59:51;;;;;;;14.40;4.30;;;1.40;99.90;;;;;;5004360;28;20199;-54
2022/01/17 07:02:17;;;;;;;28.93;5.40;;;1.60;99.70;;;;;;4996756;28;20199;-53
2022/01/17 07:04:43;;;;;;;11.33;4.40;;;1.70;99.60;;;;;;4996314;28;20640;-53
2022/01/17 07:07:09;;;;;;;8.80;4.07;;;1.90;99.20;;;;;;4998968;28;20322;-56
2022/01/17 07:09:36;;;;;;;12.63;4.13;;;2.10;99.00;;;;;;5000878;28;20274;-55
2022/01/17 07:12:05;;;;;;;17.87;5.70;;;2.10;98.90;;;;;;5002643;28;20641;-58
2022/01/17 07:14:31;;;;;;;8.97;3.87;;;2.20;98.70;;;;;;5007416;28;20546;-55
2022/01/17 07:16:57;;;;;;;9.67;4.23;;;2.30;98.60;;;;;;5009535;28;20212;-53
2022/01/17 07:19:23;;;;;;;8.60;3.70;;;2.40;98.50;;;;;;5006945;28;20214;-55
2022/01/17 07:21:50;;;;;;;13.07;3.70;;;2.50;98.20;;;;;;5009670;28;20276;-55
2022/01/17 07:24:16;;;;;;;9.07;3.27;;;2.70;98.30;;;;;;5009419;28;20226;-56
2022/01/17 07:26:42;;;;;;;21.83;3.90;;;2.70;98.40;;;;;;4995205;28;20630;-55
2022/01/17 07:29:10;;;;;;;9.30;3.50;;;2.80;98.20;;;;;;5010375;28;20192;-52
2022/01/17 07:31:36;;;;;;;9.90;3.57;;;3.00;98.00;;;;;;4995347;28;20663;-58
2022/01/17 07:34:03;;;;;;;39.93;4.60;;;3.10;97.80;;;;;;4994117;28;20275;-56
2022/01/17 07:36:29;;;;;;;12.27;3.40;;;3.10;97.90;;;;;;4995384;28;20231;-54
2022/01/17 07:38:56;;;;;;;14.63;3.93;;;3.20;97.70;;;;;;4999717;28;20389;-57
2022/01/17 07:41:22;;;;;;;11.93;3.40;;;3.30;97.70;;;;;;5004375;28;20345;-54
2022/01/17 07:43:49;;;;;;;9.40;3.57;;;3.30;97.50;;;;;;4981178;28;20199;-64
2022/01/17 07:46:36;;;;;;;12.03;3.53;;;3.40;97.60;;;;;;5004057;28;20209;-55
2022/01/17 07:49:16;;;;;;;7.93;4.00;;;3.40;97.40;;;;;;5011059;28;20224;-55
2022/01/17 07:51:44;;;;;;;7.43;3.57;;;3.50;97.40;;;;;;4994664;28;20547;-53
2022/01/17 07:54:14;;;;;;;10.50;3.50;;;3.50;97.20;;;;;;4993851;28;20704;-59
2022/01/17 07:56:40;;;;;;;7.60;2.93;;;3.50;96.90;;;;;;4994592;28;20227;-57
2022/01/17 07:59:07;;;;;;;11.53;3.43;;;3.60;96.80;;;;;;4995458;28;20203;-58
2022/01/17 08:01:34;;;;;;;9.43;3.63;;;3.70;96.60;;;;;;4994237;28;20176;-58
2022/01/17 08:04:00;;;;;;;5.23;2.20;;;3.80;96.40;;;;;;4991501;28;20631;-62
2022/01/17 08:06:26;;;;;;;6.10;2.53;;;3.90;95.90;;;;;;4975787;28;20916;-55
2022/01/17 08:08:52;;;;;;;8.53;2.90;;;4.00;95.80;;;;;;4974931;28;20188;-56
2022/01/17 08:11:18;;;;;;;8.10;2.67;;;3.90;95.80;;;;;;4973096;28;20557;-58
2022/01/17 08:13:44;;;;;;;3.70;2.40;;;4.00;95.90;;;;;;4977225;28;20196;-57
2022/01/17 08:16:10;;;;;;;10.23;2.47;;;4.10;95.60;;;;;;4994149;28;20308;-58
2022/01/17 08:18:35;;;;;;;6.37;2.50;;;4.10;95.60;;;;;;4994162;28;20558;-60
2022/01/17 08:21:03;;;;;;;6.13;2.47;;;4.20;95.50;;;;;;4993777;28;20275;-58
2022/01/17 08:23:29;;;;;;;5.43;2.80;;;4.20;95.40;;;;;;4994460;28;20299;-57
2022/01/17 08:25:55;;;;;;;10.43;3.30;;;4.20;95.70;;;;;;4989764;28;20185;-57
2022/01/17 08:28:21;;;;;;;9.57;3.53;;;4.30;95.30;;;;;;4975346;28;20634;-59
2022/01/17 08:30:47;;;;;;;21.30;4.37;;;4.30;95.20;;;;;;4994700;28;20557;-58
2022/01/17 08:33:13;;;;;;;13.23;4.37;;;4.20;95.20;;;;;;4993176;28;20188;-62
2022/01/17 08:35:39;;;;;;;15.93;3.97;;;4.30;95.40;;;;;;4993753;28;20673;-57
2022/01/17 08:38:05;;;;;;;9.23;3.60;;;4.40;95.40;;;;;;4992699;28;20210;-60
2022/01/17 08:40:31;;;;;;;9.67;3.93;;;4.40;95.30;;;;;;4976856;28;20192;-57
2022/01/17 08:42:57;;;;;;;27.40;6.30;;;4.50;95.20;;;;;;4993672;28;20185;-57
2022/01/17 08:45:24;;;;;;;16.37;4.53;;;4.60;95.20;;;;;;4977057;28;20184;-57
2022/01/17 08:47:51;;;;;;;14.63;4.67;;;4.70;95.00;;;;;;4993811;28;20223;-56
2022/01/17 08:50:19;;;;;;;16.13;4.30;;;4.80;94.70;;;;;;4976687;28;20694;-60
2022/01/17 08:52:45;;;;;;;10.57;3.80;;;4.70;94.70;;;;;;4973008;28;20659;-60
2022/01/17 08:55:11;;;;;;;10.00;3.87;;;4.60;94.90;;;;;;4992356;28;20284;-58
2022/01/17 08:57:37;;;;;;;9.07;3.60;;;4.70;94.70;;;;;;4992001;28;20345;-60
2022/01/17 09:00:09;;;;;;;22.10;5.33;;;4.70;94.70;;;;;;4984614;28;20268;-57
2022/01/17 09:02:35;;;;;;;16.17;3.97;;;4.70;94.80;;;;;;4987862;28;20199;-59
2022/01/17 09:05:01;;;;;;;8.13;3.30;;;4.60;94.70;;;;;;4992921;28;20183;-59
2022/01/17 09:07:27;;;;;;;13.37;4.03;;;4.60;94.90;;;;;;4997431;28;20662;-60
2022/01/17 09:09:52;;;;;;;10.60;4.30;;;4.60;95.30;;;;;;5012703;28;20189;-67
2022/01/17 09:12:18;;;;;;;8.07;3.93;;;4.60;94.90;;;;;;5013433;28;20176;-59
2022/01/17 09:14:44;;;;;;;11.70;4.97;;;4.60;94.70;;;;;;5012957;28;20288;-56
2022/01/17 09:17:10;;;;;;;12.77;5.10;;;4.80;94.90;;;;;;4994796;28;20248;-59
2022/01/17 09:19:37;;;;;;;12.63;4.83;;;4.90;94.80;;;;;;5013025;28;20209;-60
2022/01/17 09:22:06;;;;;;;14.77;5.53;;;4.90;94.30;;;;;;5012708;28;20669;-60
2022/01/17 09:24:32;;;;;;;15.13;4.50;;;4.90;94.60;;;;;;5013215;28;20240;-57
2022/01/17 09:26:58;;;;;;;13.83;5.20;;;4.90;94.70;;;;;;5012403;28;20561;-58
2022/01/17 09:29:24;;;;;;;17.37;4.23;;;5.00;94.40;;;;;;4995123;28;20184;-59
2022/01/17 09:31:50;;;;;;;12.13;3.27;;;5.00;94.30;;;;;;5012326;28;20645;-60
2022/01/17 09:34:16;;;;;;;9.50;3.77;;;4.90;94.20;;;;;;5012107;28;20201;-55
2022/01/17 09:36:42;;;;;;;14.03;4.77;;;5.00;94.20;;;;;;5012514;28;20677;-58
2022/01/17 09:39:09;;;;;;;12.10;4.33;;;4.90;94.20;;;;;;5012432;28;20270;-57
2022/01/17 09:41:34;;;;;;;17.97;4.57;;;4.90;94.10;;;;;;5012203;28;20190;-58
2022/01/17 09:44:01;;;;;;;9.00;3.70;;;4.90;93.90;;;;;;5011832;28;20300;-60
2022/01/17 09:46:33;;;;;;;10.57;4.60;;;4.90;93.80;;;;;;4994028;28;20307;-58
2022/01/17 09:49:13;;;;;;;8.47;3.60;;;5.00;93.80;;;;;;5011536;28;20208;-60
2022/01/17 09:54:27;;;;;;;9.93;4.20;;;5.30;93.20;;;;;;4992757;28;20210;-61
2022/01/17 09:56:59;;;;;;;20.93;3.77;;;5.60;93.10;;;;;;4992495;28;20317;-58
2022/01/17 09:59:25;;;;;;;4.63;2.37;;;5.80;92.60;;;;;;4992736;28;20294;-60
2022/01/17 10:01:51;;;;;;;16.47;4.90;;;5.80;92.10;;;;;;4992510;28;20187;-58
2022/01/17 10:04:18;;;;;;;9.67;3.67;;;6.00;92.00;;;;;;4992160;28;20657;-59
2022/01/17 10:06:51;;;;;;;10.20;3.43;;;5.90;91.70;;;;;;4986119;28;20247;-58
2022/01/17 10:09:22;;;;;;;10.53;3.60;;;5.70;91.70;;;;;;4992299;28;20186;-62
2022/01/17 10:12:06;;;;;;;12.80;3.40;;;5.70;91.90;;;;;;4992219;28;20610;-57
2022/01/17 10:14:37;;;;;;;7.70;3.93;;;5.80;92.00;;;;;;4992017;28;20175;-61
2022/01/17 10:17:09;;;;;;;9.57;3.23;;;5.70;92.00;;;;;;4991810;28;20698;-59
2022/01/17 10:19:35;;;;;;;7.87;3.50;;;5.70;91.90;;;;;;4991797;28;20213;-60
2022/01/17 10:22:08;;;;;;;8.13;3.23;;;5.60;91.50;;;;;;4991789;28;20187;-56
2022/01/17 10:24:41;;;;;;;15.03;3.20;;;5.50;91.70;;;;;;4992027;28;20281;-57
2022/01/17 10:35:25;;;;;;;9.70;3.67;;;5.00;92.00;;;;;;4991874;28;20257;-58
2022/01/17 10:37:55;;;;;;;9.13;3.27;;;4.90;92.30;;;;;;4990601;28;20232;-59
2022/01/17 10:40:21;;;;;;;13.03;3.43;;;4.80;92.40;;;;;;4991399;28;20189;-57
2022/01/17 10:42:48;;;;;;;7.73;3.40;;;4.80;92.30;;;;;;4991717;28;20512;-59
2022/01/17 10:45:23;;;;;;;16.27;3.83;;;4.90;92.20;;;;;;4991305;28;20189;-58
2022/01/17 10:47:51;;;;;;;12.90;4.10;;;5.20;92.00;;;;;;4991678;28;20199;-56
2022/01/17 10:50:33;;;;;;;12.03;3.40;;;5.30;91.80;;;;;;4991611;28;20179;-56
2022/01/17 10:53:08;;;;;;;10.27;3.50;;;5.40;91.70;;;;;;4990894;28;20743;-69
2022/01/17 10:55:43;;;;;;;7.07;3.00;;;5.50;91.50;;;;;;4991621;28;20191;-58
2022/01/17 10:58:12;;;;;;;5.67;2.60;;;5.40;91.50;;;;;;4973643;28;20665;-58
2022/01/17 11:00:43;;;;;;;7.47;2.73;;;5.30;91.70;;;;;;4990507;28;20186;-59
2022/01/17 11:03:12;;;;;;;8.67;3.57;;;5.20;91.70;;;;;;4989472;28;20213;-58
2022/01/17 11:05:40;;;;;;;9.73;2.97;;;5.30;91.80;;;;;;4989961;28;20663;-56
2022/01/17 11:08:08;;;;;;;6.00;3.23;;;5.30;91.70;;;;;;4990966;28;20187;-60
2022/01/17 11:10:36;;;;;;;23.30;4.53;;;5.30;91.80;;;;;;4991620;28;20190;-61
2022/01/17 11:13:04;;;;;;;9.03;3.00;;;5.40;91.80;;;;;;4989199;28;20176;-59
2022/01/17 11:15:33;;;;;;;8.30;3.40;;;5.40;91.50;;;;;;4991445;28;20221;-59
2022/01/17 11:18:10;;;;;;;7.87;3.13;;;5.40;91.50;;;;;;4991139;28;20194;-57
2022/01/17 11:20:36;;;;;;;8.23;3.33;;;5.40;91.40;;;;;;4991651;28;20655;-59
2022/01/17 11:23:03;;;;;;;8.63;3.00;;;5.40;91.50;;;;;;4991594;28;20594;-59
2022/01/17 11:25:34;;;;;;;10.53;4.07;;;5.30;91.60;;;;;;4991233;28;20182;-59
2022/01/17 11:28:02;;;;;;;8.90;3.77;;;5.20;91.70;;;;;;4990914;28;20198;-69
2022/01/17 11:30:28;;;;;;;7.67;3.37;;;5.20;91.80;;;;;;4991129;28;20258;-56
2022/01/17 11:32:56;;;;;;;6.20;3.40;;;5.00;92.00;;;;;;4991178;28;20198;-56
2022/01/17 11:35:23;;;;;;;11.40;4.10;;;5.00;92.10;;;;;;4991503;28;20530;-58
2022/01/17 11:37:56;;;;;;;6.83;2.90;;;4.80;92.10;;;;;;4991405;28;20236;-55
2022/01/17 11:40:27;;;;;;;6.80;2.80;;;4.80;92.30;;;;;;4991379;28;20184;-56
2022/01/17 11:42:54;;;;;;;8.83;3.50;;;4.80;92.20;;;;;;4991396;28;20263;-56
2022/01/17 11:45:22;;;;;;;8.57;2.57;;;4.70;92.20;;;;;;4991281;28;20226;-56
2022/01/17 11:47:56;;;;;;;11.30;2.47;;;4.70;92.40;;;;;;4991333;28;20637;-58
2022/01/17 11:50:29;;;;;;;8.40;3.10;;;4.70;92.30;;;;;;4989635;28;20181;-59
2022/01/17 11:53:17;;;;;;;10.10;3.27;;;4.70;92.30;;;;;;4991342;28;20252;-57
2022/01/17 11:55:45;;;;;;;5.37;3.23;;;4.80;93.10;;;;;;4991010;28;20304;-58
2022/01/17 11:58:25;;;;;;;9.10;3.40;;;4.80;92.20;;;;;;4989702;28;20216;-55
2022/01/17 12:00:57;;;;;;;5.60;2.90;;;4.90;92.30;;;;;;4991706;28;20325;-57
2022/01/17 12:03:25;;;;;;;5.77;2.83;;;4.80;92.30;;;;;;4990198;28;20268;-57
2022/01/17 12:05:53;;;;;;;6.53;3.40;;;4.70;92.20;;;;;;4992630;28;20663;-61
2022/01/17 12:08:25;;;;;;;8.13;3.17;;;4.60;92.30;;;;;;4992021;28;20189;-56
2022/01/17 12:10:59;;;;;;;9.07;3.80;;;4.60;92.40;;;;;;5010740;28;20180;-58
2022/01/17 12:13:36;;;;;;;7.90;3.50;;;4.60;92.70;;;;;;5014007;28;20180;-57
2022/01/17 12:16:11;;;;;;;7.93;3.50;;;4.60;92.60;;;;;;5008760;28;20222;-68
2022/01/17 12:18:38;;;;;;;7.67;3.33;;;4.60;92.80;;;;;;4979965;28;20195;-62
2022/01/17 12:21:28;;;;;;;7.50;3.60;;;4.60;92.70;;;;;;5013656;28;20287;-61
2022/01/17 12:24:16;;;;;;;11.43;3.57;;;4.60;92.80;;;;;;4995817;28;20187;-60
2022/01/17 12:27:04;;;;;;;10.37;5.17;;;4.50;92.90;;;;;;4996183;28;20183;-57
2022/01/17 12:29:55;;;;;;;7.77;3.30;;;4.40;92.80;;;;;;5014011;28;20528;-55
2022/01/17 12:32:28;;;;;;;14.03;5.20;;;4.40;92.70;;;;;;5013702;28;20236;-60
2022/01/17 12:35:22;;;;;;;12.17;4.03;;;4.30;92.70;;;;;;5013489;28;20187;-59
2022/01/17 12:38:08;;;;;;;12.33;4.70;;;4.30;92.80;;;;;;5011104;28;20739;-61
2022/01/17 12:40:40;;;;;;;8.03;4.20;;;4.20;92.90;;;;;;5012461;28;20643;-58
2022/01/17 12:43:11;;;;;;;8.40;4.20;;;4.20;93.00;;;;;;5011694;28;20443;-57
2022/01/17 12:45:44;;;;;;;14.90;4.50;;;4.10;93.10;;;;;;5011755;28;20813;-58
2022/01/17 12:48:12;;;;;;;14.97;5.00;;;4.10;93.40;;;;;;5011480;28;20694;-61
2022/01/17 12:50:40;;;;;;;11.37;4.53;;;4.10;93.50;;;;;;5012076;28;20179;-59
2022/01/17 12:53:09;;;;;;;8.60;4.50;;;4.10;93.70;;;;;;5011460;28;20587;-58
2022/01/17 12:55:43;;;;;;;10.17;5.07;;;4.20;93.60;;;;;;5012175;28;20185;-59
2022/01/17 12:58:20;;;;;;;15.33;5.53;;;4.20;93.70;;;;;;5009912;28;20726;-61
2022/01/17 13:01:01;;;;;;;12.37;5.40;;;4.20;93.70;;;;;;5010070;28;20183;-58
2022/01/17 13:03:32;;;;;;;8.73;4.07;;;4.20;93.70;;;;;;5011031;28;20211;-60
2022/01/17 13:06:00;;;;;;;9.50;5.13;;;4.20;93.70;;;;;;5011578;28;20867;-61
2022/01/17 13:08:26;;;;;;;13.87;5.10;;;4.10;93.80;;;;;;5011178;28;20489;-57
2022/01/17 13:10:53;;;;;;;12.10;5.37;;;4.10;94.10;;;;;;5010234;28;20245;-55
2022/01/17 13:13:19;;;;;;;12.50;4.50;;;4.10;94.10;;;;;;5011969;28;20233;-60
2022/01/17 13:16:07;;;;;;;17.00;6.03;;;4.00;94.30;;;;;;5012776;28;20254;-60
2022/01/17 13:18:34;;;;;;;10.77;5.57;;;4.00;94.30;;;;;;5011818;28;20524;-57
2022/01/17 13:21:02;;;;;;;7.73;3.83;;;4.00;94.10;;;;;;5000319;28;20705;-57